sensor_id;sensor_type;location;lat;lon;timestamp;P1;durP1;ratioP1;P2;durP2;ratioP2
10116;SDS011;5098;48.792;9.012;2022-12-18T00:00:31;43.20;;;26.20;;
10116;SDS011;5098;48.792;9.012;2022-12-18T00:02:57;46.35;;;25.50;;
10116;SDS011;5098;48.792;9.012;2022-12-18T00:05:23;42.90;;;27.02;;
10116;SDS011;5098;48.792;9.012;2022-12-18T00:07:49;46.67;;;28.25;;
10116;SDS011;5098;48.792;9.012;2022-12-18T00:10:19;50.70;;;30.00;;
10116;SDS011;5098;48.792;9.012;2022-12-18T00:12:45;49.25;;;28.77;;
10116;SDS011;5098;48.792;9.012;2022-12-18T00:15:11;40.65;;;24.67;;
10116;SDS011;5098;48.792;9.012;2022-12-18T00:17:37;41.95;;;24.92;;
10116;SDS011;5098;48.792;9.012;2022-12-18T00:20:03;37.72;;;24.92;;
10116;SDS011;5098;48.792;9.012;2022-12-18T00:22:29;44.35;;;26.60;;
10116;SDS011;5098;48.792;9.012;2022-12-18T00:24:55;43.78;;;24.52;;
10116;SDS011;5098;48.792;9.012;2022-12-18T00:27:21;45.97;;;25.15;;
10116;SDS011;5098;48.792;9.012;2022-12-18T00:29:47;47.88;;;28.20;;
10116;SDS011;5098;48.792;9.012;2022-12-18T00:32:14;45.95;;;25.90;;
10116;SDS011;5098;48.792;9.012;2022-12-18T00:34:40;43.97;;;25.90;;
10116;SDS011;5098;48.792;9.012;2022-12-18T00:37:06;39.88;;;24.38;;
10116;SDS011;5098;48.792;9.012;2022-12-18T00:39:32;40.67;;;24.15;;
10116;SDS011;5098;48.792;9.012;2022-12-18T00:41:58;42.78;;;25.85;;
10116;SDS011;5098;48.792;9.012;2022-12-18T00:44:43;49.08;;;29.25;;
10116;SDS011;5098;48.792;9.012;2022-12-18T00:47:09;44.63;;;26.10;;
10116;SDS011;5098;48.792;9.012;2022-12-18T00:49:35;45.28;;;28.65;;
10116;SDS011;5098;48.792;9.012;2022-12-18T00:52:01;44.00;;;25.42;;
10116;SDS011;5098;48.792;9.012;2022-12-18T00:54:27;42.47;;;23.95;;
10116;SDS011;5098;48.792;9.012;2022-12-18T00:56:53;42.78;;;25.48;;
10116;SDS011;5098;48.792;9.012;2022-12-18T00:59:20;45.53;;;24.65;;
10116;SDS011;5098;48.792;9.012;2022-12-18T01:01:46;41.97;;;27.88;;
10116;SDS011;5098;48.792;9.012;2022-12-18T01:04:12;47.78;;;28.75;;
10116;SDS011;5098;48.792;9.012;2022-12-18T01:06:38;46.17;;;29.77;;
10116;SDS011;5098;48.792;9.012;2022-12-18T01:09:05;48.72;;;26.65;;
10116;SDS011;5098;48.792;9.012;2022-12-18T01:11:31;46.17;;;26.63;;
10116;SDS011;5098;48.792;9.012;2022-12-18T01:14:00;43.95;;;28.88;;
10116;SDS011;5098;48.792;9.012;2022-12-18T01:16:26;42.78;;;27.00;;
10116;SDS011;5098;48.792;9.012;2022-12-18T01:18:53;51.88;;;27.45;;
10116;SDS011;5098;48.792;9.012;2022-12-18T01:21:19;44.95;;;28.10;;
10116;SDS011;5098;48.792;9.012;2022-12-18T01:23:46;52.17;;;29.92;;
10116;SDS011;5098;48.792;9.012;2022-12-18T01:26:14;47.42;;;30.77;;
10116;SDS011;5098;48.792;9.012;2022-12-18T01:28:41;46.63;;;28.17;;
10116;SDS011;5098;48.792;9.012;2022-12-18T01:31:18;49.67;;;29.65;;
10116;SDS011;5098;48.792;9.012;2022-12-18T01:33:44;49.15;;;30.95;;
10116;SDS011;5098;48.792;9.012;2022-12-18T01:36:14;48.72;;;30.25;;
10116;SDS011;5098;48.792;9.012;2022-12-18T01:38:41;49.72;;;29.65;;
10116;SDS011;5098;48.792;9.012;2022-12-18T01:41:07;46.00;;;26.95;;
10116;SDS011;5098;48.792;9.012;2022-12-18T01:43:44;39.97;;;24.25;;
10116;SDS011;5098;48.792;9.012;2022-12-18T01:46:10;40.08;;;25.13;;
10116;SDS011;5098;48.792;9.012;2022-12-18T01:48:37;46.90;;;23.33;;
10116;SDS011;5098;48.792;9.012;2022-12-18T01:51:04;43.75;;;25.75;;
10116;SDS011;5098;48.792;9.012;2022-12-18T01:53:31;45.40;;;28.13;;
10116;SDS011;5098;48.792;9.012;2022-12-18T01:55:57;46.28;;;26.70;;
10116;SDS011;5098;48.792;9.012;2022-12-18T02:01:09;45.33;;;30.80;;
10116;SDS011;5098;48.792;9.012;2022-12-18T02:03:35;49.25;;;29.13;;
10116;SDS011;5098;48.792;9.012;2022-12-18T02:08:37;45.58;;;28.90;;
10116;SDS011;5098;48.792;9.012;2022-12-18T02:11:11;42.58;;;28.05;;
10116;SDS011;5098;48.792;9.012;2022-12-18T02:13:46;48.45;;;29.30;;
10116;SDS011;5098;48.792;9.012;2022-12-18T02:17:18;47.13;;;28.90;;
10116;SDS011;5098;48.792;9.012;2022-12-18T02:19:15;45.10;;;26.88;;
10116;SDS011;5098;48.792;9.012;2022-12-18T02:21:56;46.75;;;28.88;;
10116;SDS011;5098;48.792;9.012;2022-12-18T02:24:27;44.63;;;27.17;;
10116;SDS011;5098;48.792;9.012;2022-12-18T02:26:56;43.13;;;26.48;;
10116;SDS011;5098;48.792;9.012;2022-12-18T02:29:24;42.80;;;27.25;;
10116;SDS011;5098;48.792;9.012;2022-12-18T02:31:55;42.42;;;26.48;;
10116;SDS011;5098;48.792;9.012;2022-12-18T02:34:23;43.85;;;27.52;;
10116;SDS011;5098;48.792;9.012;2022-12-18T02:36:50;44.63;;;29.23;;
10116;SDS011;5098;48.792;9.012;2022-12-18T02:39:17;47.35;;;28.70;;
10116;SDS011;5098;48.792;9.012;2022-12-18T02:41:46;43.45;;;27.60;;
10116;SDS011;5098;48.792;9.012;2022-12-18T02:44:12;46.55;;;28.83;;
10116;SDS011;5098;48.792;9.012;2022-12-18T02:49:06;46.25;;;28.50;;
10116;SDS011;5098;48.792;9.012;2022-12-18T02:51:44;48.45;;;27.45;;
10116;SDS011;5098;48.792;9.012;2022-12-18T02:57:03;40.47;;;27.42;;
10116;SDS011;5098;48.792;9.012;2022-12-18T02:59:37;42.30;;;26.88;;
10116;SDS011;5098;48.792;9.012;2022-12-18T03:02:08;43.80;;;27.67;;
10116;SDS011;5098;48.792;9.012;2022-12-18T03:04:39;45.38;;;28.52;;
10116;SDS011;5098;48.792;9.012;2022-12-18T03:07:14;41.20;;;25.10;;
10116;SDS011;5098;48.792;9.012;2022-12-18T03:09:42;38.28;;;24.33;;
10116;SDS011;5098;48.792;9.012;2022-12-18T03:12:23;41.55;;;23.55;;
10116;SDS011;5098;48.792;9.012;2022-12-18T03:14:52;37.70;;;23.13;;
10116;SDS011;5098;48.792;9.012;2022-12-18T03:17:19;50.45;;;25.13;;
10116;SDS011;5098;48.792;9.012;2022-12-18T03:19:46;39.90;;;25.55;;
10116;SDS011;5098;48.792;9.012;2022-12-18T03:22:13;41.88;;;24.80;;
10116;SDS011;5098;48.792;9.012;2022-12-18T03:24:40;39.70;;;25.38;;
10116;SDS011;5098;48.792;9.012;2022-12-18T03:27:08;46.10;;;24.83;;
10116;SDS011;5098;48.792;9.012;2022-12-18T03:29:38;46.33;;;25.35;;
10116;SDS011;5098;48.792;9.012;2022-12-18T03:32:05;45.33;;;24.70;;
10116;SDS011;5098;48.792;9.012;2022-12-18T03:34:34;45.30;;;25.35;;
10116;SDS011;5098;48.792;9.012;2022-12-18T03:37:04;46.70;;;26.13;;
10116;SDS011;5098;48.792;9.012;2022-12-18T03:39:31;42.72;;;25.75;;
10116;SDS011;5098;48.792;9.012;2022-12-18T03:44:59;47.13;;;25.50;;
10116;SDS011;5098;48.792;9.012;2022-12-18T03:47:27;49.03;;;26.83;;
10116;SDS011;5098;48.792;9.012;2022-12-18T03:54:47;44.42;;;25.70;;
10116;SDS011;5098;48.792;9.012;2022-12-18T03:57:14;41.45;;;23.45;;
10116;SDS011;5098;48.792;9.012;2022-12-18T03:59:41;40.05;;;22.65;;
10116;SDS011;5098;48.792;9.012;2022-12-18T04:02:08;43.80;;;22.95;;
10116;SDS011;5098;48.792;9.012;2022-12-18T04:04:38;39.10;;;23.67;;
10116;SDS011;5098;48.792;9.012;2022-12-18T04:07:05;40.40;;;23.63;;
10116;SDS011;5098;48.792;9.012;2022-12-18T04:09:32;41.72;;;23.55;;
10116;SDS011;5098;48.792;9.012;2022-12-18T04:11:58;46.90;;;24.67;;
10116;SDS011;5098;48.792;9.012;2022-12-18T04:14:24;42.22;;;25.42;;
10116;SDS011;5098;48.792;9.012;2022-12-18T04:16:50;44.10;;;24.50;;
10116;SDS011;5098;48.792;9.012;2022-12-18T04:19:16;39.33;;;25.38;;
10116;SDS011;5098;48.792;9.012;2022-12-18T04:21:42;42.38;;;25.63;;
10116;SDS011;5098;48.792;9.012;2022-12-18T04:24:08;45.15;;;25.55;;
10116;SDS011;5098;48.792;9.012;2022-12-18T04:26:34;37.45;;;22.80;;
10116;SDS011;5098;48.792;9.012;2022-12-18T04:29:00;40.20;;;23.67;;
10116;SDS011;5098;48.792;9.012;2022-12-18T04:31:27;48.55;;;24.58;;
10116;SDS011;5098;48.792;9.012;2022-12-18T04:33:53;41.97;;;22.20;;
10116;SDS011;5098;48.792;9.012;2022-12-18T04:36:19;39.95;;;22.25;;
10116;SDS011;5098;48.792;9.012;2022-12-18T04:38:45;43.50;;;25.30;;
10116;SDS011;5098;48.792;9.012;2022-12-18T04:41:14;40.03;;;24.02;;
10116;SDS011;5098;48.792;9.012;2022-12-18T04:43:40;38.25;;;22.45;;
10116;SDS011;5098;48.792;9.012;2022-12-18T04:46:07;39.85;;;21.95;;
10116;SDS011;5098;48.792;9.012;2022-12-18T04:48:33;38.72;;;21.55;;
10116;SDS011;5098;48.792;9.012;2022-12-18T04:51:00;43.97;;;24.30;;
10116;SDS011;5098;48.792;9.012;2022-12-18T04:53:26;39.20;;;23.42;;
10116;SDS011;5098;48.792;9.012;2022-12-18T04:58:48;40.05;;;22.45;;
10116;SDS011;5098;48.792;9.012;2022-12-18T05:01:14;39.95;;;22.63;;
10116;SDS011;5098;48.792;9.012;2022-12-18T05:03:40;38.17;;;21.85;;
10116;SDS011;5098;48.792;9.012;2022-12-18T05:06:07;35.95;;;22.05;;
10116;SDS011;5098;48.792;9.012;2022-12-18T05:08:33;35.83;;;21.67;;
10116;SDS011;5098;48.792;9.012;2022-12-18T05:10:59;40.40;;;22.20;;
10116;SDS011;5098;48.792;9.012;2022-12-18T05:13:26;40.63;;;21.50;;
10116;SDS011;5098;48.792;9.012;2022-12-18T05:15:52;42.05;;;23.20;;
10116;SDS011;5098;48.792;9.012;2022-12-18T05:18:18;34.50;;;20.48;;
10116;SDS011;5098;48.792;9.012;2022-12-18T05:20:44;36.03;;;20.83;;
10116;SDS011;5098;48.792;9.012;2022-12-18T05:23:10;38.53;;;21.95;;
10116;SDS011;5098;48.792;9.012;2022-12-18T05:25:37;35.33;;;21.70;;
10116;SDS011;5098;48.792;9.012;2022-12-18T05:28:03;40.60;;;22.40;;
10116;SDS011;5098;48.792;9.012;2022-12-18T05:30:29;37.75;;;22.35;;
10116;SDS011;5098;48.792;9.012;2022-12-18T05:32:55;36.17;;;21.55;;
10116;SDS011;5098;48.792;9.012;2022-12-18T05:35:21;35.00;;;21.15;;
10116;SDS011;5098;48.792;9.012;2022-12-18T05:37:47;39.53;;;21.25;;
10116;SDS011;5098;48.792;9.012;2022-12-18T05:40:13;39.88;;;21.38;;
10116;SDS011;5098;48.792;9.012;2022-12-18T05:42:39;37.72;;;21.30;;
10116;SDS011;5098;48.792;9.012;2022-12-18T05:45:05;38.30;;;22.08;;
10116;SDS011;5098;48.792;9.012;2022-12-18T05:47:31;38.20;;;19.40;;
10116;SDS011;5098;48.792;9.012;2022-12-18T05:49:57;42.05;;;20.98;;
10116;SDS011;5098;48.792;9.012;2022-12-18T05:52:24;35.63;;;21.15;;
10116;SDS011;5098;48.792;9.012;2022-12-18T05:54:50;43.03;;;21.27;;
10116;SDS011;5098;48.792;9.012;2022-12-18T05:57:16;36.30;;;21.05;;
10116;SDS011;5098;48.792;9.012;2022-12-18T05:59:42;41.78;;;22.30;;
10116;SDS011;5098;48.792;9.012;2022-12-18T06:02:08;38.85;;;22.70;;
10116;SDS011;5098;48.792;9.012;2022-12-18T06:04:34;38.03;;;22.40;;
10116;SDS011;5098;48.792;9.012;2022-12-18T06:07:03;44.70;;;23.55;;
10116;SDS011;5098;48.792;9.012;2022-12-18T06:09:29;43.65;;;24.80;;
10116;SDS011;5098;48.792;9.012;2022-12-18T06:11:55;44.05;;;22.40;;
10116;SDS011;5098;48.792;9.012;2022-12-18T06:14:21;41.22;;;22.75;;
10116;SDS011;5098;48.792;9.012;2022-12-18T06:16:47;43.40;;;23.05;;
10116;SDS011;5098;48.792;9.012;2022-12-18T06:19:16;42.58;;;22.55;;
10116;SDS011;5098;48.792;9.012;2022-12-18T06:21:42;37.45;;;20.80;;
10116;SDS011;5098;48.792;9.012;2022-12-18T06:24:08;36.17;;;21.30;;
10116;SDS011;5098;48.792;9.012;2022-12-18T06:26:36;39.30;;;21.60;;
10116;SDS011;5098;48.792;9.012;2022-12-18T06:29:02;32.85;;;22.20;;
10116;SDS011;5098;48.792;9.012;2022-12-18T06:31:28;35.80;;;21.88;;
10116;SDS011;5098;48.792;9.012;2022-12-18T06:33:54;37.03;;;20.80;;
10116;SDS011;5098;48.792;9.012;2022-12-18T06:36:21;33.92;;;21.98;;
10116;SDS011;5098;48.792;9.012;2022-12-18T06:38:47;31.67;;;19.08;;
10116;SDS011;5098;48.792;9.012;2022-12-18T06:41:15;31.65;;;17.27;;
10116;SDS011;5098;48.792;9.012;2022-12-18T06:43:41;35.53;;;20.90;;
10116;SDS011;5098;48.792;9.012;2022-12-18T06:46:08;34.72;;;19.63;;
10116;SDS011;5098;48.792;9.012;2022-12-18T06:48:34;32.08;;;19.80;;
10116;SDS011;5098;48.792;9.012;2022-12-18T06:51:00;30.80;;;19.38;;
10116;SDS011;5098;48.792;9.012;2022-12-18T06:53:26;32.45;;;18.80;;
10116;SDS011;5098;48.792;9.012;2022-12-18T06:55:52;33.85;;;18.45;;
10116;SDS011;5098;48.792;9.012;2022-12-18T06:58:19;41.80;;;21.75;;
10116;SDS011;5098;48.792;9.012;2022-12-18T07:00:45;30.98;;;19.27;;
10116;SDS011;5098;48.792;9.012;2022-12-18T07:03:11;36.72;;;22.23;;
10116;SDS011;5098;48.792;9.012;2022-12-18T07:05:40;34.65;;;20.75;;
10116;SDS011;5098;48.792;9.012;2022-12-18T07:08:06;35.92;;;21.13;;
10116;SDS011;5098;48.792;9.012;2022-12-18T07:10:32;35.45;;;21.90;;
10116;SDS011;5098;48.792;9.012;2022-12-18T07:12:58;35.58;;;21.63;;
10116;SDS011;5098;48.792;9.012;2022-12-18T07:15:24;40.42;;;22.17;;
10116;SDS011;5098;48.792;9.012;2022-12-18T07:17:50;36.13;;;22.30;;
10116;SDS011;5098;48.792;9.012;2022-12-18T07:20:16;38.00;;;22.05;;
10116;SDS011;5098;48.792;9.012;2022-12-18T07:22:42;34.65;;;22.00;;
10116;SDS011;5098;48.792;9.012;2022-12-18T07:25:09;32.90;;;19.00;;
10116;SDS011;5098;48.792;9.012;2022-12-18T07:27:35;34.72;;;19.38;;
10116;SDS011;5098;48.792;9.012;2022-12-18T07:30:01;35.75;;;20.40;;
10116;SDS011;5098;48.792;9.012;2022-12-18T07:32:27;33.97;;;18.95;;
10116;SDS011;5098;48.792;9.012;2022-12-18T07:34:53;30.10;;;18.25;;
10116;SDS011;5098;48.792;9.012;2022-12-18T07:37:19;33.25;;;21.35;;
10116;SDS011;5098;48.792;9.012;2022-12-18T07:39:45;33.95;;;20.48;;
10116;SDS011;5098;48.792;9.012;2022-12-18T07:42:11;32.75;;;18.23;;
10116;SDS011;5098;48.792;9.012;2022-12-18T07:44:55;34.15;;;20.52;;
10116;SDS011;5098;48.792;9.012;2022-12-18T07:47:21;40.08;;;20.05;;
10116;SDS011;5098;48.792;9.012;2022-12-18T07:49:47;36.13;;;19.98;;
10116;SDS011;5098;48.792;9.012;2022-12-18T07:52:13;36.03;;;20.52;;
10116;SDS011;5098;48.792;9.012;2022-12-18T07:54:39;27.52;;;16.48;;
10116;SDS011;5098;48.792;9.012;2022-12-18T07:57:05;33.05;;;18.80;;
10116;SDS011;5098;48.792;9.012;2022-12-18T07:59:31;26.40;;;16.20;;
10116;SDS011;5098;48.792;9.012;2022-12-18T08:01:58;33.85;;;17.00;;
10116;SDS011;5098;48.792;9.012;2022-12-18T08:04:24;25.85;;;16.15;;
10116;SDS011;5098;48.792;9.012;2022-12-18T08:06:50;25.25;;;14.63;;
10116;SDS011;5098;48.792;9.012;2022-12-18T08:09:16;25.75;;;16.10;;
10116;SDS011;5098;48.792;9.012;2022-12-18T08:11:42;25.45;;;15.70;;
10116;SDS011;5098;48.792;9.012;2022-12-18T08:14:08;25.70;;;16.10;;
10116;SDS011;5098;48.792;9.012;2022-12-18T08:16:35;23.55;;;14.40;;
10116;SDS011;5098;48.792;9.012;2022-12-18T08:19:01;22.58;;;14.52;;
10116;SDS011;5098;48.792;9.012;2022-12-18T08:21:28;24.08;;;14.40;;
10116;SDS011;5098;48.792;9.012;2022-12-18T08:23:55;28.75;;;16.58;;
10116;SDS011;5098;48.792;9.012;2022-12-18T08:26:22;26.67;;;15.40;;
10116;SDS011;5098;48.792;9.012;2022-12-18T08:28:48;26.45;;;16.45;;
10116;SDS011;5098;48.792;9.012;2022-12-18T08:31:15;22.95;;;13.75;;
10116;SDS011;5098;48.792;9.012;2022-12-18T08:33:41;22.65;;;14.05;;
10116;SDS011;5098;48.792;9.012;2022-12-18T08:36:08;25.23;;;15.00;;
10116;SDS011;5098;48.792;9.012;2022-12-18T08:38:34;23.95;;;15.82;;
10116;SDS011;5098;48.792;9.012;2022-12-18T08:41:03;25.80;;;15.57;;
10116;SDS011;5098;48.792;9.012;2022-12-18T08:43:29;28.40;;;15.93;;
10116;SDS011;5098;48.792;9.012;2022-12-18T08:46:17;23.17;;;13.38;;
10116;SDS011;5098;48.792;9.012;2022-12-18T08:48:43;20.58;;;13.85;;
10116;SDS011;5098;48.792;9.012;2022-12-18T08:51:09;24.75;;;17.15;;
10116;SDS011;5098;48.792;9.012;2022-12-18T08:53:36;24.15;;;15.20;;
10116;SDS011;5098;48.792;9.012;2022-12-18T08:56:03;22.42;;;14.45;;
10116;SDS011;5098;48.792;9.012;2022-12-18T08:58:29;22.27;;;14.95;;
10116;SDS011;5098;48.792;9.012;2022-12-18T09:01:01;23.17;;;15.95;;
10116;SDS011;5098;48.792;9.012;2022-12-18T09:03:27;22.38;;;15.52;;
10116;SDS011;5098;48.792;9.012;2022-12-18T09:05:54;23.77;;;15.13;;
10116;SDS011;5098;48.792;9.012;2022-12-18T09:08:20;22.85;;;15.25;;
10116;SDS011;5098;48.792;9.012;2022-12-18T09:10:46;23.70;;;15.65;;
10116;SDS011;5098;48.792;9.012;2022-12-18T09:13:13;22.70;;;15.38;;
10116;SDS011;5098;48.792;9.012;2022-12-18T09:15:50;24.88;;;16.05;;
10116;SDS011;5098;48.792;9.012;2022-12-18T09:18:17;23.67;;;15.25;;
10116;SDS011;5098;48.792;9.012;2022-12-18T09:20:43;22.70;;;15.70;;
10116;SDS011;5098;48.792;9.012;2022-12-18T09:23:10;23.13;;;16.20;;
10116;SDS011;5098;48.792;9.012;2022-12-18T09:25:36;22.33;;;14.15;;
10116;SDS011;5098;48.792;9.012;2022-12-18T09:28:05;23.40;;;15.30;;
10116;SDS011;5098;48.792;9.012;2022-12-18T09:30:32;26.83;;;16.42;;
10116;SDS011;5098;48.792;9.012;2022-12-18T09:33:00;24.05;;;14.85;;
10116;SDS011;5098;48.792;9.012;2022-12-18T09:35:26;24.00;;;13.60;;
10116;SDS011;5098;48.792;9.012;2022-12-18T09:37:53;22.60;;;16.83;;
10116;SDS011;5098;48.792;9.012;2022-12-18T09:40:20;22.10;;;15.10;;
10116;SDS011;5098;48.792;9.012;2022-12-18T09:42:48;23.08;;;14.90;;
10116;SDS011;5098;48.792;9.012;2022-12-18T09:45:15;24.42;;;15.30;;
10116;SDS011;5098;48.792;9.012;2022-12-18T09:47:42;24.15;;;16.10;;
10116;SDS011;5098;48.792;9.012;2022-12-18T09:52:55;23.40;;;16.25;;
10116;SDS011;5098;48.792;9.012;2022-12-18T09:55:24;29.85;;;17.30;;
10116;SDS011;5098;48.792;9.012;2022-12-18T09:57:53;21.52;;;15.30;;
10116;SDS011;5098;48.792;9.012;2022-12-18T10:00:21;22.17;;;14.98;;
10116;SDS011;5098;48.792;9.012;2022-12-18T10:02:48;22.30;;;14.98;;
10116;SDS011;5098;48.792;9.012;2022-12-18T10:05:17;23.95;;;15.00;;
10116;SDS011;5098;48.792;9.012;2022-12-18T10:07:47;25.50;;;18.30;;
10116;SDS011;5098;48.792;9.012;2022-12-18T10:10:19;20.92;;;14.70;;
10116;SDS011;5098;48.792;9.012;2022-12-18T10:13:09;26.75;;;17.85;;
10116;SDS011;5098;48.792;9.012;2022-12-18T10:20:47;23.58;;;15.68;;
10116;SDS011;5098;48.792;9.012;2022-12-18T10:23:29;23.50;;;15.63;;
10116;SDS011;5098;48.792;9.012;2022-12-18T10:26:03;20.90;;;15.25;;
10116;SDS011;5098;48.792;9.012;2022-12-18T10:28:30;27.83;;;18.50;;
10116;SDS011;5098;48.792;9.012;2022-12-18T10:30:57;24.85;;;16.25;;
10116;SDS011;5098;48.792;9.012;2022-12-18T10:33:24;27.65;;;16.52;;
10116;SDS011;5098;48.792;9.012;2022-12-18T10:35:53;24.45;;;14.82;;
10116;SDS011;5098;48.792;9.012;2022-12-18T10:38:21;26.77;;;15.20;;
10116;SDS011;5098;48.792;9.012;2022-12-18T10:43:14;23.63;;;14.95;;
10116;SDS011;5098;48.792;9.012;2022-12-18T10:45:41;24.92;;;17.25;;
10116;SDS011;5098;48.792;9.012;2022-12-18T10:48:18;25.92;;;16.10;;
10116;SDS011;5098;48.792;9.012;2022-12-18T10:50:46;29.67;;;13.93;;
10116;SDS011;5098;48.792;9.012;2022-12-18T10:53:13;26.55;;;17.20;;
10116;SDS011;5098;48.792;9.012;2022-12-18T10:55:44;18.70;;;12.13;;
10116;SDS011;5098;48.792;9.012;2022-12-18T11:01:03;22.70;;;14.93;;
10116;SDS011;5098;48.792;9.012;2022-12-18T11:03:31;25.45;;;16.33;;
10116;SDS011;5098;48.792;9.012;2022-12-18T11:08:32;25.90;;;15.40;;
10116;SDS011;5098;48.792;9.012;2022-12-18T11:10:59;21.05;;;11.45;;
10116;SDS011;5098;48.792;9.012;2022-12-18T11:13:26;25.08;;;16.95;;
10116;SDS011;5098;48.792;9.012;2022-12-18T11:15:52;25.00;;;16.63;;
10116;SDS011;5098;48.792;9.012;2022-12-18T11:18:34;22.65;;;15.25;;
10116;SDS011;5098;48.792;9.012;2022-12-18T11:21:05;25.65;;;15.88;;
10116;SDS011;5098;48.792;9.012;2022-12-18T11:23:32;24.85;;;14.75;;
10116;SDS011;5098;48.792;9.012;2022-12-18T11:25:59;23.00;;;14.25;;
10116;SDS011;5098;48.792;9.012;2022-12-18T11:31:16;27.05;;;17.35;;
10116;SDS011;5098;48.792;9.012;2022-12-18T11:33:44;23.92;;;14.73;;
10116;SDS011;5098;48.792;9.012;2022-12-18T11:36:12;25.45;;;14.85;;
10116;SDS011;5098;48.792;9.012;2022-12-18T11:38:41;23.00;;;14.05;;
10116;SDS011;5098;48.792;9.012;2022-12-18T11:41:19;25.88;;;14.13;;
10116;SDS011;5098;48.792;9.012;2022-12-18T11:43:48;23.42;;;14.63;;
10116;SDS011;5098;48.792;9.012;2022-12-18T11:46:36;22.50;;;14.50;;
10116;SDS011;5098;48.792;9.012;2022-12-18T11:49:07;21.27;;;15.45;;
10116;SDS011;5098;48.792;9.012;2022-12-18T11:51:55;24.48;;;14.45;;
10116;SDS011;5098;48.792;9.012;2022-12-18T11:54:24;26.02;;;15.30;;
10116;SDS011;5098;48.792;9.012;2022-12-18T11:56:51;24.67;;;15.55;;
10116;SDS011;5098;48.792;9.012;2022-12-18T11:59:23;24.88;;;15.60;;
10116;SDS011;5098;48.792;9.012;2022-12-18T12:01:53;24.10;;;16.15;;
10116;SDS011;5098;48.792;9.012;2022-12-18T12:09:41;23.80;;;14.40;;
10116;SDS011;5098;48.792;9.012;2022-12-18T12:19:35;25.20;;;15.60;;
10116;SDS011;5098;48.792;9.012;2022-12-18T12:24:45;27.63;;;15.80;;
10116;SDS011;5098;48.792;9.012;2022-12-18T12:38:00;25.92;;;15.82;;
10116;SDS011;5098;48.792;9.012;2022-12-18T12:40:32;24.98;;;15.50;;
10116;SDS011;5098;48.792;9.012;2022-12-18T12:43:02;25.27;;;15.43;;
10116;SDS011;5098;48.792;9.012;2022-12-18T12:48:05;28.27;;;16.65;;
10116;SDS011;5098;48.792;9.012;2022-12-18T12:50:33;27.83;;;15.20;;
10116;SDS011;5098;48.792;9.012;2022-12-18T12:52:59;28.33;;;15.57;;
10116;SDS011;5098;48.792;9.012;2022-12-18T12:55:27;28.08;;;17.02;;
10116;SDS011;5098;48.792;9.012;2022-12-18T13:00:20;23.70;;;15.32;;
10116;SDS011;5098;48.792;9.012;2022-12-18T13:05:34;26.13;;;16.60;;
10116;SDS011;5098;48.792;9.012;2022-12-18T13:08:08;27.52;;;15.32;;
10116;SDS011;5098;48.792;9.012;2022-12-18T13:10:35;24.58;;;16.63;;
10116;SDS011;5098;48.792;9.012;2022-12-18T13:15:38;21.05;;;13.65;;
10116;SDS011;5098;48.792;9.012;2022-12-18T13:25:55;26.73;;;15.65;;
10116;SDS011;5098;48.792;9.012;2022-12-18T13:31:06;28.85;;;17.30;;
10116;SDS011;5098;48.792;9.012;2022-12-18T13:33:36;26.60;;;17.40;;
10116;SDS011;5098;48.792;9.012;2022-12-18T13:36:12;28.58;;;18.55;;
10116;SDS011;5098;48.792;9.012;2022-12-18T13:38:39;27.13;;;17.00;;
10116;SDS011;5098;48.792;9.012;2022-12-18T13:43:48;33.08;;;18.42;;
10116;SDS011;5098;48.792;9.012;2022-12-18T13:48:57;29.00;;;17.15;;
10116;SDS011;5098;48.792;9.012;2022-12-18T13:51:24;26.17;;;16.80;;
10116;SDS011;5098;48.792;9.012;2022-12-18T13:53:51;30.88;;;17.83;;
10116;SDS011;5098;48.792;9.012;2022-12-18T13:56:23;29.30;;;17.00;;
10116;SDS011;5098;48.792;9.012;2022-12-18T14:01:34;32.08;;;17.95;;
10116;SDS011;5098;48.792;9.012;2022-12-18T14:04:16;30.23;;;18.75;;
10116;SDS011;5098;48.792;9.012;2022-12-18T14:06:43;31.65;;;19.25;;
10116;SDS011;5098;48.792;9.012;2022-12-18T14:09:12;30.27;;;16.92;;
10116;SDS011;5098;48.792;9.012;2022-12-18T14:11:39;30.75;;;18.15;;
10116;SDS011;5098;48.792;9.012;2022-12-18T14:14:05;33.35;;;18.45;;
10116;SDS011;5098;48.792;9.012;2022-12-18T14:16:32;36.97;;;18.60;;
10116;SDS011;5098;48.792;9.012;2022-12-18T14:18:59;32.60;;;18.27;;
10116;SDS011;5098;48.792;9.012;2022-12-18T14:21:26;33.28;;;19.70;;
10116;SDS011;5098;48.792;9.012;2022-12-18T14:24:03;31.73;;;18.33;;
10116;SDS011;5098;48.792;9.012;2022-12-18T14:26:30;32.92;;;18.27;;
10116;SDS011;5098;48.792;9.012;2022-12-18T14:28:57;32.25;;;18.92;;
10116;SDS011;5098;48.792;9.012;2022-12-18T14:31:26;34.13;;;19.45;;
10116;SDS011;5098;48.792;9.012;2022-12-18T14:33:53;35.65;;;21.30;;
10116;SDS011;5098;48.792;9.012;2022-12-18T14:36:23;41.40;;;21.83;;
10116;SDS011;5098;48.792;9.012;2022-12-18T14:38:52;36.88;;;21.60;;
10116;SDS011;5098;48.792;9.012;2022-12-18T14:41:19;36.72;;;19.45;;
10116;SDS011;5098;48.792;9.012;2022-12-18T14:43:50;38.47;;;20.80;;
10116;SDS011;5098;48.792;9.012;2022-12-18T14:46:30;34.63;;;19.50;;
10116;SDS011;5098;48.792;9.012;2022-12-18T14:48:57;39.72;;;22.77;;
10116;SDS011;5098;48.792;9.012;2022-12-18T14:51:27;40.35;;;22.20;;
10116;SDS011;5098;48.792;9.012;2022-12-18T14:53:55;38.50;;;20.77;;
10116;SDS011;5098;48.792;9.012;2022-12-18T14:56:28;39.42;;;22.77;;
10116;SDS011;5098;48.792;9.012;2022-12-18T14:58:56;42.70;;;23.65;;
10116;SDS011;5098;48.792;9.012;2022-12-18T15:03:53;42.55;;;23.33;;
10116;SDS011;5098;48.792;9.012;2022-12-18T15:08:51;35.97;;;20.38;;
10116;SDS011;5098;48.792;9.012;2022-12-18T15:11:28;39.40;;;23.58;;
10116;SDS011;5098;48.792;9.012;2022-12-18T15:13:54;37.03;;;19.98;;
10116;SDS011;5098;48.792;9.012;2022-12-18T15:16:20;36.42;;;21.42;;
10116;SDS011;5098;48.792;9.012;2022-12-18T15:18:47;38.45;;;20.88;;
10116;SDS011;5098;48.792;9.012;2022-12-18T15:21:17;40.88;;;21.42;;
10116;SDS011;5098;48.792;9.012;2022-12-18T15:26:11;38.75;;;20.27;;
10116;SDS011;5098;48.792;9.012;2022-12-18T15:28:38;42.40;;;21.02;;
10116;SDS011;5098;48.792;9.012;2022-12-18T15:31:06;37.72;;;19.90;;
10116;SDS011;5098;48.792;9.012;2022-12-18T15:36:18;36.60;;;20.27;;
10116;SDS011;5098;48.792;9.012;2022-12-18T15:38:48;25.83;;;15.00;;
10116;SDS011;5098;48.792;9.012;2022-12-18T15:41:15;34.05;;;19.90;;
10116;SDS011;5098;48.792;9.012;2022-12-18T15:43:42;37.70;;;22.05;;
10116;SDS011;5098;48.792;9.012;2022-12-18T15:46:12;41.67;;;22.58;;
10116;SDS011;5098;48.792;9.012;2022-12-18T15:48:40;38.35;;;20.30;;
10116;SDS011;5098;48.792;9.012;2022-12-18T15:51:10;36.00;;;21.05;;
10116;SDS011;5098;48.792;9.012;2022-12-18T15:53:37;33.88;;;16.35;;
10116;SDS011;5098;48.792;9.012;2022-12-18T15:56:04;44.83;;;23.27;;
10116;SDS011;5098;48.792;9.012;2022-12-18T15:58:49;37.42;;;21.95;;
10116;SDS011;5098;48.792;9.012;2022-12-18T16:01:15;44.42;;;23.00;;
10116;SDS011;5098;48.792;9.012;2022-12-18T16:03:41;39.58;;;21.75;;
10116;SDS011;5098;48.792;9.012;2022-12-18T16:06:08;26.65;;;14.95;;
10116;SDS011;5098;48.792;9.012;2022-12-18T16:08:34;43.58;;;24.30;;
10116;SDS011;5098;48.792;9.012;2022-12-18T16:11:00;43.38;;;23.85;;
10116;SDS011;5098;48.792;9.012;2022-12-18T16:13:27;44.53;;;23.30;;
10116;SDS011;5098;48.792;9.012;2022-12-18T16:15:53;41.70;;;21.80;;
10116;SDS011;5098;48.792;9.012;2022-12-18T16:18:19;42.35;;;22.63;;
10116;SDS011;5098;48.792;9.012;2022-12-18T16:20:45;41.78;;;23.38;;
10116;SDS011;5098;48.792;9.012;2022-12-18T16:23:11;38.88;;;21.65;;